Selawik Airport

About
Name: Selawik Airport
Identifier:  WLK/PASK
Serves:  Selawik, Alaska
Owner:  Alaska DOT&PF - Northern Region
Public/Private:  Public
Local Time:  19. Aug 16:40 AKDT
Description: Selawik Airport is a state-owned public-use airport located in Selawik, a city in the Northwest Arctic Borough of the U.S. state of Alaska.
Source: Wikipedia
Location
Runways
Identifier Length (m/ft) Surface
3/21 3,002/3,002 Gravel
9/27 2,659/2,659 Gravel
Flights per Day
6 flights
Distance: 121km (75mi)
Punctuality
69% (1 flights per day delayed)
Delay Average: 42 minutes
Current Weather
 15 C (Humidity: 47%)
  3kt (5km/h / 3mph) from 90°
  16km (10 mi.)
 
 METAR PASK 192356Z AUTO 09003KT 10SM CLR 15/04 A3005 RMK AO2 SLP172 6//// T01500039 10150 20100

Current Flights

Departures
Number Departure To Airline
 8E652 15:40  Kotzebue Bering Air
Arrivals
Number Arrival From Airline
 8E651 09:45  Kotzebue Bering Air

Current Delays

Departures
N/A
Arrivals
N/A

Destinations

Top Destinations
Airport Flights
per week
Seats
per week
  Kotzebue (OTZ) 6 - 0 0
  Kiana (IAN) 0 - 0 0
  Anchorage (ANC) 0 8 0 1
  Unalakleet (UNK) 0 - 0 0

Airlines & Planes

Top Airlines
Airline Flights
per Day
Seats
per Day
Bering Air 0 -
  Era Alaska 0 1
SkyBus International Airlines 0 -
Top Plane Types
Model Flights Seats
Piper PA-31-350 0.9/day - 0
Pilatus PC-12 0.0/day - 0
Bombardier Dash 8-100 0.0/day 1/day 1.2333333333333334
Cessna C208 0.0/day - 0